sensor_id;sensor_type;location;lat;lon;timestamp;temperature;humidity
11229;DHT22;5671;47.936;8.716;2023-02-15T00:00:44;-4.20;83.70
11229;DHT22;5671;47.936;8.716;2023-02-15T00:03:11;-4.20;82.90
11229;DHT22;5671;47.936;8.716;2023-02-15T00:05:37;-4.20;84.00
11229;DHT22;5671;47.936;8.716;2023-02-15T00:08:05;-4.20;83.80
11229;DHT22;5671;47.936;8.716;2023-02-15T00:10:32;-4.30;83.00
11229;DHT22;5671;47.936;8.716;2023-02-15T00:13:00;-4.30;83.40
11229;DHT22;5671;47.936;8.716;2023-02-15T00:15:26;-4.30;83.70
11229;DHT22;5671;47.936;8.716;2023-02-15T00:17:53;-4.30;83.70
11229;DHT22;5671;47.936;8.716;2023-02-15T00:20:20;-4.40;83.60
11229;DHT22;5671;47.936;8.716;2023-02-15T00:22:47;-4.40;83.50
11229;DHT22;5671;47.936;8.716;2023-02-15T00:25:15;-4.40;83.30
11229;DHT22;5671;47.936;8.716;2023-02-15T00:27:42;-4.50;84.00
11229;DHT22;5671;47.936;8.716;2023-02-15T00:30:09;-4.50;84.40
11229;DHT22;5671;47.936;8.716;2023-02-15T00:32:36;-4.50;83.50
11229;DHT22;5671;47.936;8.716;2023-02-15T00:35:03;-4.60;83.40
11229;DHT22;5671;47.936;8.716;2023-02-15T00:37:32;-4.60;83.50
11229;DHT22;5671;47.936;8.716;2023-02-15T00:39:59;-4.60;83.60
11229;DHT22;5671;47.936;8.716;2023-02-15T00:42:27;-4.70;84.10
11229;DHT22;5671;47.936;8.716;2023-02-15T00:44:53;-4.70;83.60
11229;DHT22;5671;47.936;8.716;2023-02-15T00:47:20;-4.70;83.80
11229;DHT22;5671;47.936;8.716;2023-02-15T00:49:47;-4.70;83.80
11229;DHT22;5671;47.936;8.716;2023-02-15T00:52:14;-4.80;83.80
11229;DHT22;5671;47.936;8.716;2023-02-15T00:54:40;-4.80;82.90
11229;DHT22;5671;47.936;8.716;2023-02-15T00:57:07;-4.80;82.50
11229;DHT22;5671;47.936;8.716;2023-02-15T00:59:35;-4.80;83.20
11229;DHT22;5671;47.936;8.716;2023-02-15T01:02:02;-4.90;82.20
11229;DHT22;5671;47.936;8.716;2023-02-15T01:04:29;-4.90;82.10
11229;DHT22;5671;47.936;8.716;2023-02-15T01:06:56;-4.90;83.50
11229;DHT22;5671;47.936;8.716;2023-02-15T01:09:22;-4.90;84.10
11229;DHT22;5671;47.936;8.716;2023-02-15T01:11:52;-5.00;83.70
11229;DHT22;5671;47.936;8.716;2023-02-15T01:14:19;-5.00;82.80
11229;DHT22;5671;47.936;8.716;2023-02-15T01:16:48;-5.00;82.90
11229;DHT22;5671;47.936;8.716;2023-02-15T01:19:15;-5.00;82.90
11229;DHT22;5671;47.936;8.716;2023-02-15T01:21:42;-5.10;82.30
11229;DHT22;5671;47.936;8.716;2023-02-15T01:24:12;-5.10;83.20
11229;DHT22;5671;47.936;8.716;2023-02-15T01:26:39;-5.10;83.50
11229;DHT22;5671;47.936;8.716;2023-02-15T01:29:06;-5.10;83.40
11229;DHT22;5671;47.936;8.716;2023-02-15T01:31:32;-5.20;83.60
11229;DHT22;5671;47.936;8.716;2023-02-15T01:34:00;-5.20;82.90
11229;DHT22;5671;47.936;8.716;2023-02-15T01:36:28;-5.20;83.20
11229;DHT22;5671;47.936;8.716;2023-02-15T01:38:55;-5.20;83.20
11229;DHT22;5671;47.936;8.716;2023-02-15T01:41:22;-5.20;83.60
11229;DHT22;5671;47.936;8.716;2023-02-15T01:43:51;-5.20;84.10
11229;DHT22;5671;47.936;8.716;2023-02-15T01:46:22;-5.30;83.60
11229;DHT22;5671;47.936;8.716;2023-02-15T01:48:52;-5.30;83.50
11229;DHT22;5671;47.936;8.716;2023-02-15T01:51:23;-5.30;83.30
11229;DHT22;5671;47.936;8.716;2023-02-15T01:53:55;-5.30;82.70
11229;DHT22;5671;47.936;8.716;2023-02-15T01:56:26;-5.30;82.50
11229;DHT22;5671;47.936;8.716;2023-02-15T01:58:55;-5.40;82.50
11229;DHT22;5671;47.936;8.716;2023-02-15T02:01:24;-5.40;82.60
11229;DHT22;5671;47.936;8.716;2023-02-15T02:03:59;-5.40;82.10
11229;DHT22;5671;47.936;8.716;2023-02-15T02:06:29;-5.40;82.90
11229;DHT22;5671;47.936;8.716;2023-02-15T02:08:57;-5.40;82.80
11229;DHT22;5671;47.936;8.716;2023-02-15T02:11:24;-5.40;82.50
11229;DHT22;5671;47.936;8.716;2023-02-15T02:13:53;-5.40;82.50
11229;DHT22;5671;47.936;8.716;2023-02-15T02:16:23;-5.50;83.10
11229;DHT22;5671;47.936;8.716;2023-02-15T02:22:20;-5.50;83.40
11229;DHT22;5671;47.936;8.716;2023-02-15T02:25:18;-5.50;84.20
11229;DHT22;5671;47.936;8.716;2023-02-15T02:27:50;-5.50;84.50
11229;DHT22;5671;47.936;8.716;2023-02-15T02:33:32;-5.50;83.10
11229;DHT22;5671;47.936;8.716;2023-02-15T02:36:08;-5.60;83.30
11229;DHT22;5671;47.936;8.716;2023-02-15T02:38:50;-5.60;83.10
11229;DHT22;5671;47.936;8.716;2023-02-15T02:41:26;-5.60;83.70
11229;DHT22;5671;47.936;8.716;2023-02-15T02:44:02;-5.60;83.20
11229;DHT22;5671;47.936;8.716;2023-02-15T02:46:35;-5.60;83.50
11229;DHT22;5671;47.936;8.716;2023-02-15T02:49:05;-5.60;83.10
11229;DHT22;5671;47.936;8.716;2023-02-15T02:51:32;-5.60;83.80
11229;DHT22;5671;47.936;8.716;2023-02-15T02:54:01;-5.70;83.60
11229;DHT22;5671;47.936;8.716;2023-02-15T02:56:35;-5.70;84.30
11229;DHT22;5671;47.936;8.716;2023-02-15T02:59:07;-5.70;84.20
11229;DHT22;5671;47.936;8.716;2023-02-15T03:01:38;-5.70;84.00
11229;DHT22;5671;47.936;8.716;2023-02-15T03:04:10;-5.70;84.50
11229;DHT22;5671;47.936;8.716;2023-02-15T03:06:41;-5.70;85.00
11229;DHT22;5671;47.936;8.716;2023-02-15T03:09:15;-5.70;85.10
11229;DHT22;5671;47.936;8.716;2023-02-15T03:11:45;-5.70;83.90
11229;DHT22;5671;47.936;8.716;2023-02-15T03:14:14;-5.80;83.80
11229;DHT22;5671;47.936;8.716;2023-02-15T03:16:43;-5.70;84.10
11229;DHT22;5671;47.936;8.716;2023-02-15T03:19:14;-5.70;84.20
11229;DHT22;5671;47.936;8.716;2023-02-15T03:21:44;-5.80;84.40
11229;DHT22;5671;47.936;8.716;2023-02-15T03:24:24;-5.80;84.50
11229;DHT22;5671;47.936;8.716;2023-02-15T03:26:53;-5.70;84.60
11229;DHT22;5671;47.936;8.716;2023-02-15T03:29:23;-5.80;84.60
11229;DHT22;5671;47.936;8.716;2023-02-15T03:31:54;-5.80;85.20
11229;DHT22;5671;47.936;8.716;2023-02-15T03:34:25;-5.80;85.00
11229;DHT22;5671;47.936;8.716;2023-02-15T03:36:56;-5.80;84.90
11229;DHT22;5671;47.936;8.716;2023-02-15T03:39:30;-5.80;85.00
11229;DHT22;5671;47.936;8.716;2023-02-15T03:42:05;-5.90;84.20
11229;DHT22;5671;47.936;8.716;2023-02-15T03:44:41;-5.80;83.80
11229;DHT22;5671;47.936;8.716;2023-02-15T03:47:15;-5.90;83.80
11229;DHT22;5671;47.936;8.716;2023-02-15T03:49:47;-5.90;84.30
11229;DHT22;5671;47.936;8.716;2023-02-15T03:52:16;-5.90;84.20
11229;DHT22;5671;47.936;8.716;2023-02-15T03:54:43;-5.90;83.90
11229;DHT22;5671;47.936;8.716;2023-02-15T03:57:14;-5.90;84.00
11229;DHT22;5671;47.936;8.716;2023-02-15T04:00:00;-5.90;83.50
11229;DHT22;5671;47.936;8.716;2023-02-15T04:02:57;-5.90;83.80
11229;DHT22;5671;47.936;8.716;2023-02-15T04:05:28;-6.00;84.60
11229;DHT22;5671;47.936;8.716;2023-02-15T04:07:55;-6.00;84.50
11229;DHT22;5671;47.936;8.716;2023-02-15T04:10:22;-5.90;84.50
11229;DHT22;5671;47.936;8.716;2023-02-15T04:13:06;-6.00;84.10
11229;DHT22;5671;47.936;8.716;2023-02-15T04:15:33;-6.00;83.70
11229;DHT22;5671;47.936;8.716;2023-02-15T04:18:17;-6.00;83.70
11229;DHT22;5671;47.936;8.716;2023-02-15T04:20:46;-6.00;83.90
11229;DHT22;5671;47.936;8.716;2023-02-15T04:23:30;-6.00;84.10
11229;DHT22;5671;47.936;8.716;2023-02-15T04:26:14;-6.00;84.10
11229;DHT22;5671;47.936;8.716;2023-02-15T04:28:41;-6.10;84.50
11229;DHT22;5671;47.936;8.716;2023-02-15T04:31:08;-6.10;84.80
11229;DHT22;5671;47.936;8.716;2023-02-15T04:33:35;-6.10;85.00
11229;DHT22;5671;47.936;8.716;2023-02-15T04:36:03;-6.10;84.70
11229;DHT22;5671;47.936;8.716;2023-02-15T04:38:30;-6.10;84.10
11229;DHT22;5671;47.936;8.716;2023-02-15T04:40:57;-6.10;83.80
11229;DHT22;5671;47.936;8.716;2023-02-15T04:43:24;-6.10;83.40
11229;DHT22;5671;47.936;8.716;2023-02-15T04:45:51;-6.10;83.60
11229;DHT22;5671;47.936;8.716;2023-02-15T04:48:17;-6.20;83.50
11229;DHT22;5671;47.936;8.716;2023-02-15T04:50:45;-6.10;83.50
11229;DHT22;5671;47.936;8.716;2023-02-15T04:53:13;-6.20;83.90
11229;DHT22;5671;47.936;8.716;2023-02-15T04:55:42;-6.20;84.10
11229;DHT22;5671;47.936;8.716;2023-02-15T04:58:08;-6.20;84.40
11229;DHT22;5671;47.936;8.716;2023-02-15T05:00:35;-6.20;84.10
11229;DHT22;5671;47.936;8.716;2023-02-15T05:03:02;-6.20;84.40
11229;DHT22;5671;47.936;8.716;2023-02-15T05:05:29;-6.20;84.10
11229;DHT22;5671;47.936;8.716;2023-02-15T05:07:56;-6.20;85.00
11229;DHT22;5671;47.936;8.716;2023-02-15T05:10:24;-6.20;85.00
11229;DHT22;5671;47.936;8.716;2023-02-15T05:12:50;-6.20;84.60
11229;DHT22;5671;47.936;8.716;2023-02-15T05:15:17;-6.20;84.30
11229;DHT22;5671;47.936;8.716;2023-02-15T05:17:46;-6.20;84.90
11229;DHT22;5671;47.936;8.716;2023-02-15T05:20:13;-6.20;85.20
11229;DHT22;5671;47.936;8.716;2023-02-15T05:22:40;-6.20;84.80
11229;DHT22;5671;47.936;8.716;2023-02-15T05:25:08;-6.30;83.80
11229;DHT22;5671;47.936;8.716;2023-02-15T05:27:54;-6.30;83.80
11229;DHT22;5671;47.936;8.716;2023-02-15T05:30:38;-6.30;84.60
11229;DHT22;5671;47.936;8.716;2023-02-15T05:33:05;-6.30;84.50
11229;DHT22;5671;47.936;8.716;2023-02-15T05:35:32;-6.30;85.00
11229;DHT22;5671;47.936;8.716;2023-02-15T05:37:59;-6.30;84.70
11229;DHT22;5671;47.936;8.716;2023-02-15T05:40:26;-6.30;84.30
11229;DHT22;5671;47.936;8.716;2023-02-15T05:42:55;-6.30;84.90
11229;DHT22;5671;47.936;8.716;2023-02-15T05:45:22;-6.30;85.30
11229;DHT22;5671;47.936;8.716;2023-02-15T05:47:49;-6.30;85.30
11229;DHT22;5671;47.936;8.716;2023-02-15T05:50:16;-6.30;85.20
11229;DHT22;5671;47.936;8.716;2023-02-15T05:52:43;-6.30;84.50
11229;DHT22;5671;47.936;8.716;2023-02-15T05:55:10;-6.30;84.10
11229;DHT22;5671;47.936;8.716;2023-02-15T05:57:37;-6.30;84.00
11229;DHT22;5671;47.936;8.716;2023-02-15T06:00:07;-6.40;84.10
11229;DHT22;5671;47.936;8.716;2023-02-15T06:02:35;-6.30;83.60
11229;DHT22;5671;47.936;8.716;2023-02-15T06:05:02;-6.40;83.30
11229;DHT22;5671;47.936;8.716;2023-02-15T06:07:29;-6.40;83.60
11229;DHT22;5671;47.936;8.716;2023-02-15T06:09:55;-6.40;84.40
11229;DHT22;5671;47.936;8.716;2023-02-15T06:12:22;-6.40;84.10
11229;DHT22;5671;47.936;8.716;2023-02-15T06:14:49;-6.40;84.10
11229;DHT22;5671;47.936;8.716;2023-02-15T06:17:17;-6.40;84.40
11229;DHT22;5671;47.936;8.716;2023-02-15T06:19:44;-6.40;84.50
11229;DHT22;5671;47.936;8.716;2023-02-15T06:22:11;-6.40;84.70
11229;DHT22;5671;47.936;8.716;2023-02-15T06:24:39;-6.40;84.10
11229;DHT22;5671;47.936;8.716;2023-02-15T06:27:07;-6.40;83.30
11229;DHT22;5671;47.936;8.716;2023-02-15T06:29:34;-6.40;83.70
11229;DHT22;5671;47.936;8.716;2023-02-15T06:32:01;-6.50;84.10
11229;DHT22;5671;47.936;8.716;2023-02-15T06:34:29;-6.40;84.40
11229;DHT22;5671;47.936;8.716;2023-02-15T06:36:56;-6.40;84.10
11229;DHT22;5671;47.936;8.716;2023-02-15T06:39:23;-6.40;84.20
11229;DHT22;5671;47.936;8.716;2023-02-15T06:41:49;-6.40;84.50
11229;DHT22;5671;47.936;8.716;2023-02-15T06:44:16;-6.40;84.90
11229;DHT22;5671;47.936;8.716;2023-02-15T06:46:43;-6.40;85.30
11229;DHT22;5671;47.936;8.716;2023-02-15T06:49:10;-6.40;85.40
11229;DHT22;5671;47.936;8.716;2023-02-15T06:51:38;-6.40;85.60
11229;DHT22;5671;47.936;8.716;2023-02-15T06:54:05;-6.40;85.60
11229;DHT22;5671;47.936;8.716;2023-02-15T06:56:32;-6.40;85.70
11229;DHT22;5671;47.936;8.716;2023-02-15T06:58:58;-6.30;85.30
11229;DHT22;5671;47.936;8.716;2023-02-15T07:01:25;-6.30;85.00
11229;DHT22;5671;47.936;8.716;2023-02-15T07:03:53;-6.20;85.10
11229;DHT22;5671;47.936;8.716;2023-02-15T07:06:20;-6.10;85.10
11229;DHT22;5671;47.936;8.716;2023-02-15T07:08:48;-6.00;85.30
11229;DHT22;5671;47.936;8.716;2023-02-15T07:11:18;-6.00;85.50
11229;DHT22;5671;47.936;8.716;2023-02-15T07:14:02;-5.90;86.00
11229;DHT22;5671;47.936;8.716;2023-02-15T07:16:29;-5.80;86.50
11229;DHT22;5671;47.936;8.716;2023-02-15T07:18:56;-5.60;86.60
11229;DHT22;5671;47.936;8.716;2023-02-15T07:21:22;-5.50;86.50
11229;DHT22;5671;47.936;8.716;2023-02-15T07:23:50;-5.40;86.20
11229;DHT22;5671;47.936;8.716;2023-02-15T07:26:17;-5.30;86.10
11229;DHT22;5671;47.936;8.716;2023-02-15T07:28:44;-5.20;86.20
11229;DHT22;5671;47.936;8.716;2023-02-15T07:31:11;-5.10;86.00
11229;DHT22;5671;47.936;8.716;2023-02-15T07:33:38;-4.90;86.10
11229;DHT22;5671;47.936;8.716;2023-02-15T07:36:05;-4.80;86.10
11229;DHT22;5671;47.936;8.716;2023-02-15T07:38:33;-4.60;85.50
11229;DHT22;5671;47.936;8.716;2023-02-15T07:41:04;-4.40;85.40
11229;DHT22;5671;47.936;8.716;2023-02-15T07:43:33;-4.30;85.00
11229;DHT22;5671;47.936;8.716;2023-02-15T07:46:00;-4.20;84.90
11229;DHT22;5671;47.936;8.716;2023-02-15T07:48:27;-4.00;84.70
11229;DHT22;5671;47.936;8.716;2023-02-15T07:50:56;-3.90;84.20
11229;DHT22;5671;47.936;8.716;2023-02-15T07:53:24;-3.80;83.50
11229;DHT22;5671;47.936;8.716;2023-02-15T07:55:51;-3.60;83.50
11229;DHT22;5671;47.936;8.716;2023-02-15T07:58:22;-3.50;83.40
11229;DHT22;5671;47.936;8.716;2023-02-15T08:01:09;-3.40;83.30
11229;DHT22;5671;47.936;8.716;2023-02-15T08:03:36;-3.20;83.00
11229;DHT22;5671;47.936;8.716;2023-02-15T08:06:03;-3.10;83.00
11229;DHT22;5671;47.936;8.716;2023-02-15T08:08:30;-3.00;82.60
11229;DHT22;5671;47.936;8.716;2023-02-15T08:11:01;-2.90;82.50
11229;DHT22;5671;47.936;8.716;2023-02-15T08:13:48;-2.70;83.00
11229;DHT22;5671;47.936;8.716;2023-02-15T08:16:22;-2.60;83.00
11229;DHT22;5671;47.936;8.716;2023-02-15T08:18:49;-2.40;83.60
11229;DHT22;5671;47.936;8.716;2023-02-15T08:21:16;-2.20;82.80
11229;DHT22;5671;47.936;8.716;2023-02-15T08:23:43;-2.10;82.90
11229;DHT22;5671;47.936;8.716;2023-02-15T08:26:10;-1.80;82.60
11229;DHT22;5671;47.936;8.716;2023-02-15T08:28:37;-1.60;82.60
11229;DHT22;5671;47.936;8.716;2023-02-15T08:31:06;-1.40;82.00
11229;DHT22;5671;47.936;8.716;2023-02-15T08:33:33;-1.20;81.50
11229;DHT22;5671;47.936;8.716;2023-02-15T08:36:03;-0.90;80.20
11229;DHT22;5671;47.936;8.716;2023-02-15T08:38:30;-0.70;79.60
11229;DHT22;5671;47.936;8.716;2023-02-15T08:40:57;-0.40;79.00
11229;DHT22;5671;47.936;8.716;2023-02-15T08:43:24;0.00;77.60
11229;DHT22;5671;47.936;8.716;2023-02-15T08:45:50;0.30;76.70
11229;DHT22;5671;47.936;8.716;2023-02-15T08:48:18;0.60;75.00
11229;DHT22;5671;47.936;8.716;2023-02-15T08:50:45;0.70;74.10
11229;DHT22;5671;47.936;8.716;2023-02-15T08:53:12;0.70;74.70
11229;DHT22;5671;47.936;8.716;2023-02-15T08:55:39;0.80;74.10
11229;DHT22;5671;47.936;8.716;2023-02-15T08:58:06;0.80;74.10
11229;DHT22;5671;47.936;8.716;2023-02-15T09:00:33;0.80;73.50
11229;DHT22;5671;47.936;8.716;2023-02-15T09:02:59;1.00;73.00
11229;DHT22;5671;47.936;8.716;2023-02-15T09:05:28;1.30;72.00
11229;DHT22;5671;47.936;8.716;2023-02-15T09:07:54;1.50;71.70
11229;DHT22;5671;47.936;8.716;2023-02-15T09:10:21;1.70;71.40
11229;DHT22;5671;47.936;8.716;2023-02-15T09:12:48;1.80;70.70
11229;DHT22;5671;47.936;8.716;2023-02-15T09:15:16;1.90;70.70
11229;DHT22;5671;47.936;8.716;2023-02-15T09:17:43;2.00;71.20
11229;DHT22;5671;47.936;8.716;2023-02-15T09:20:10;2.20;71.00
11229;DHT22;5671;47.936;8.716;2023-02-15T09:22:39;2.40;70.20
11229;DHT22;5671;47.936;8.716;2023-02-15T09:25:06;2.60;71.00
11229;DHT22;5671;47.936;8.716;2023-02-15T09:27:33;2.80;70.10
11229;DHT22;5671;47.936;8.716;2023-02-15T09:29:59;3.00;69.60
11229;DHT22;5671;47.936;8.716;2023-02-15T09:32:26;3.20;69.40
11229;DHT22;5671;47.936;8.716;2023-02-15T09:34:53;3.40;68.00
11229;DHT22;5671;47.936;8.716;2023-02-15T09:37:20;3.60;68.30
11229;DHT22;5671;47.936;8.716;2023-02-15T09:39:48;3.80;68.50
11229;DHT22;5671;47.936;8.716;2023-02-15T09:42:28;4.10;68.10
11229;DHT22;5671;47.936;8.716;2023-02-15T09:48:05;4.40;65.60
11229;DHT22;5671;47.936;8.716;2023-02-15T09:50:40;4.60;65.10
11229;DHT22;5671;47.936;8.716;2023-02-15T09:53:29;4.70;65.00
11229;DHT22;5671;47.936;8.716;2023-02-15T09:56:06;4.90;64.50
11229;DHT22;5671;47.936;8.716;2023-02-15T09:58:43;5.10;64.80
11229;DHT22;5671;47.936;8.716;2023-02-15T10:01:19;5.30;65.30
11229;DHT22;5671;47.936;8.716;2023-02-15T10:04:01;5.60;65.50
11229;DHT22;5671;47.936;8.716;2023-02-15T10:06:36;5.80;64.20
11229;DHT22;5671;47.936;8.716;2023-02-15T10:09:24;6.10;63.60
11229;DHT22;5671;47.936;8.716;2023-02-15T10:12:24;6.40;62.30
11229;DHT22;5671;47.936;8.716;2023-02-15T10:15:07;6.80;61.80
11229;DHT22;5671;47.936;8.716;2023-02-15T10:17:48;7.20;61.40
11229;DHT22;5671;47.936;8.716;2023-02-15T10:20:23;7.70;61.70
11229;DHT22;5671;47.936;8.716;2023-02-15T10:23:05;8.60;60.80
11229;DHT22;5671;47.936;8.716;2023-02-15T10:25:41;9.40;59.40
11229;DHT22;5671;47.936;8.716;2023-02-15T10:28:16;10.40;57.20
11229;DHT22;5671;47.936;8.716;2023-02-15T10:30:47;11.30;54.60
11229;DHT22;5671;47.936;8.716;2023-02-15T10:33:27;12.00;52.40
11229;DHT22;5671;47.936;8.716;2023-02-15T10:36:10;12.70;50.60
11229;DHT22;5671;47.936;8.716;2023-02-15T10:38:41;13.60;52.40
11229;DHT22;5671;47.936;8.716;2023-02-15T10:41:22;14.40;49.20
11229;DHT22;5671;47.936;8.716;2023-02-15T10:44:12;14.70;44.50
11229;DHT22;5671;47.936;8.716;2023-02-15T10:47:06;15.40;42.50
11229;DHT22;5671;47.936;8.716;2023-02-15T10:49:49;15.90;45.10
11229;DHT22;5671;47.936;8.716;2023-02-15T10:52:28;16.70;47.80
11229;DHT22;5671;47.936;8.716;2023-02-15T10:55:03;17.30;45.10
11229;DHT22;5671;47.936;8.716;2023-02-15T10:57:39;17.90;43.40
11229;DHT22;5671;47.936;8.716;2023-02-15T11:00:15;18.40;43.60
11229;DHT22;5671;47.936;8.716;2023-02-15T11:02:54;18.70;38.20
11229;DHT22;5671;47.936;8.716;2023-02-15T11:05:37;18.60;36.80
11229;DHT22;5671;47.936;8.716;2023-02-15T11:08:09;18.30;40.50
11229;DHT22;5671;47.936;8.716;2023-02-15T11:10:39;18.30;37.70
11229;DHT22;5671;47.936;8.716;2023-02-15T11:13:11;18.70;40.80
11229;DHT22;5671;47.936;8.716;2023-02-15T11:15:44;18.80;40.10
11229;DHT22;5671;47.936;8.716;2023-02-15T11:18:14;18.70;39.00
11229;DHT22;5671;47.936;8.716;2023-02-15T11:20:48;18.30;38.30
11229;DHT22;5671;47.936;8.716;2023-02-15T11:23:16;17.90;39.20
11229;DHT22;5671;47.936;8.716;2023-02-15T11:25:46;17.50;40.30
11229;DHT22;5671;47.936;8.716;2023-02-15T11:28:19;16.90;42.20
11229;DHT22;5671;47.936;8.716;2023-02-15T11:30:50;16.40;41.70
11229;DHT22;5671;47.936;8.716;2023-02-15T11:33:20;16.00;42.80
11229;DHT22;5671;47.936;8.716;2023-02-15T11:35:50;15.50;43.90
11229;DHT22;5671;47.936;8.716;2023-02-15T11:38:20;15.10;45.00
11229;DHT22;5671;47.936;8.716;2023-02-15T11:40:49;14.70;44.70
11229;DHT22;5671;47.936;8.716;2023-02-15T11:43:20;14.20;45.80
11229;DHT22;5671;47.936;8.716;2023-02-15T11:45:51;13.90;45.20
11229;DHT22;5671;47.936;8.716;2023-02-15T11:48:18;13.50;45.00
11229;DHT22;5671;47.936;8.716;2023-02-15T11:50:45;13.30;46.10
11229;DHT22;5671;47.936;8.716;2023-02-15T11:53:14;13.10;46.50
11229;DHT22;5671;47.936;8.716;2023-02-15T11:55:43;13.00;47.80
11229;DHT22;5671;47.936;8.716;2023-02-15T11:58:19;12.80;47.20
11229;DHT22;5671;47.936;8.716;2023-02-15T12:00:51;12.60;47.70
11229;DHT22;5671;47.936;8.716;2023-02-15T12:03:22;12.60;49.20
11229;DHT22;5671;47.936;8.716;2023-02-15T12:05:57;12.50;48.90
11229;DHT22;5671;47.936;8.716;2023-02-15T12:08:25;12.40;47.80
11229;DHT22;5671;47.936;8.716;2023-02-15T12:11:00;12.30;49.50
11229;DHT22;5671;47.936;8.716;2023-02-15T12:13:29;12.20;47.80
11229;DHT22;5671;47.936;8.716;2023-02-15T12:15:59;12.10;49.30
11229;DHT22;5671;47.936;8.716;2023-02-15T12:18:36;12.00;47.10
11229;DHT22;5671;47.936;8.716;2023-02-15T12:21:07;12.00;48.60
11229;DHT22;5671;47.936;8.716;2023-02-15T12:23:41;12.00;47.70
11229;DHT22;5671;47.936;8.716;2023-02-15T12:26:09;12.00;48.00
11229;DHT22;5671;47.936;8.716;2023-02-15T12:28:37;12.00;51.30
11229;DHT22;5671;47.936;8.716;2023-02-15T12:31:18;12.20;48.40
11229;DHT22;5671;47.936;8.716;2023-02-15T12:33:46;12.30;49.10
11229;DHT22;5671;47.936;8.716;2023-02-15T12:36:17;12.50;48.60
11229;DHT22;5671;47.936;8.716;2023-02-15T12:39:02;12.70;47.70
11229;DHT22;5671;47.936;8.716;2023-02-15T12:41:29;13.00;47.60
11229;DHT22;5671;47.936;8.716;2023-02-15T12:44:05;13.20;45.50
11229;DHT22;5671;47.936;8.716;2023-02-15T12:46:35;13.60;46.20
11229;DHT22;5671;47.936;8.716;2023-02-15T12:49:06;14.00;43.70
11229;DHT22;5671;47.936;8.716;2023-02-15T12:51:43;14.50;41.30
11229;DHT22;5671;47.936;8.716;2023-02-15T12:54:17;15.20;40.90
11229;DHT22;5671;47.936;8.716;2023-02-15T12:56:44;15.70;42.30
11229;DHT22;5671;47.936;8.716;2023-02-15T12:59:13;16.60;39.40
11229;DHT22;5671;47.936;8.716;2023-02-15T13:01:42;17.20;38.40
11229;DHT22;5671;47.936;8.716;2023-02-15T13:04:21;18.20;42.30
11229;DHT22;5671;47.936;8.716;2023-02-15T13:06:51;19.20;40.20
11229;DHT22;5671;47.936;8.716;2023-02-15T13:09:20;20.10;39.50
11229;DHT22;5671;47.936;8.716;2023-02-15T13:11:51;21.10;38.20
11229;DHT22;5671;47.936;8.716;2023-02-15T13:14:20;21.80;37.20
11229;DHT22;5671;47.936;8.716;2023-02-15T13:16:52;22.60;38.30
11229;DHT22;5671;47.936;8.716;2023-02-15T13:19:26;23.40;36.10
11229;DHT22;5671;47.936;8.716;2023-02-15T13:21:56;24.00;35.50
11229;DHT22;5671;47.936;8.716;2023-02-15T13:24:26;24.60;34.80
11229;DHT22;5671;47.936;8.716;2023-02-15T13:26:56;25.10;35.30
11229;DHT22;5671;47.936;8.716;2023-02-15T13:29:26;25.50;33.70
11229;DHT22;5671;47.936;8.716;2023-02-15T13:31:57;25.80;32.60
11229;DHT22;5671;47.936;8.716;2023-02-15T13:34:26;26.00;31.60
11229;DHT22;5671;47.936;8.716;2023-02-15T13:37:01;26.20;32.60
11229;DHT22;5671;47.936;8.716;2023-02-15T13:39:36;26.40;32.80
11229;DHT22;5671;47.936;8.716;2023-02-15T13:42:17;26.60;31.40
11229;DHT22;5671;47.936;8.716;2023-02-15T13:45:01;26.70;32.70
11229;DHT22;5671;47.936;8.716;2023-02-15T13:47:34;26.80;32.10
11229;DHT22;5671;47.936;8.716;2023-02-15T13:50:20;26.80;31.50
11229;DHT22;5671;47.936;8.716;2023-02-15T13:53:01;26.90;31.40
11229;DHT22;5671;47.936;8.716;2023-02-15T13:55:37;27.00;31.00
11229;DHT22;5671;47.936;8.716;2023-02-15T13:58:26;27.20;31.50
11229;DHT22;5671;47.936;8.716;2023-02-15T14:01:04;27.30;31.00
11229;DHT22;5671;47.936;8.716;2023-02-15T14:04:07;27.40;31.40
11229;DHT22;5671;47.936;8.716;2023-02-15T14:06:58;27.40;31.10
11229;DHT22;5671;47.936;8.716;2023-02-15T14:09:40;27.60;30.60
11229;DHT22;5671;47.936;8.716;2023-02-15T14:12:25;27.70;30.60
11229;DHT22;5671;47.936;8.716;2023-02-15T14:15:10;27.80;30.70
11229;DHT22;5671;47.936;8.716;2023-02-15T14:17:48;27.90;31.10
11229;DHT22;5671;47.936;8.716;2023-02-15T14:20:22;27.90;31.90
11229;DHT22;5671;47.936;8.716;2023-02-15T14:22:55;28.00;30.70
11229;DHT22;5671;47.936;8.716;2023-02-15T14:25:30;28.10;30.50
11229;DHT22;5671;47.936;8.716;2023-02-15T14:28:05;28.00;30.60
11229;DHT22;5671;47.936;8.716;2023-02-15T14:30:37;28.00;29.90
11229;DHT22;5671;47.936;8.716;2023-02-15T14:33:07;27.90;30.30
11229;DHT22;5671;47.936;8.716;2023-02-15T14:35:37;27.70;29.90
11229;DHT22;5671;47.936;8.716;2023-02-15T14:38:13;27.50;29.50
11229;DHT22;5671;47.936;8.716;2023-02-15T14:40:47;27.30;29.80
11229;DHT22;5671;47.936;8.716;2023-02-15T14:43:38;27.20;29.90
11229;DHT22;5671;47.936;8.716;2023-02-15T14:46:12;27.10;30.30
11229;DHT22;5671;47.936;8.716;2023-02-15T14:48:45;27.00;29.80
11229;DHT22;5671;47.936;8.716;2023-02-15T14:57:36;24.50;30.80
11229;DHT22;5671;47.936;8.716;2023-02-15T15:00:33;23.50;31.90
11229;DHT22;5671;47.936;8.716;2023-02-15T15:03:11;22.60;32.60
11229;DHT22;5671;47.936;8.716;2023-02-15T15:05:48;21.60;33.50
11229;DHT22;5671;47.936;8.716;2023-02-15T15:08:25;20.70;34.30
11229;DHT22;5671;47.936;8.716;2023-02-15T15:10:53;20.00;35.10
11229;DHT22;5671;47.936;8.716;2023-02-15T15:13:54;19.30;35.50
11229;DHT22;5671;47.936;8.716;2023-02-15T15:16:30;18.50;36.20
11229;DHT22;5671;47.936;8.716;2023-02-15T15:18:58;18.00;36.80
11229;DHT22;5671;47.936;8.716;2023-02-15T15:21:53;17.40;37.10
11229;DHT22;5671;47.936;8.716;2023-02-15T15:24:46;16.80;38.00
11229;DHT22;5671;47.936;8.716;2023-02-15T15:27:39;16.30;38.00
11229;DHT22;5671;47.936;8.716;2023-02-15T15:30:50;15.90;39.60
11229;DHT22;5671;47.936;8.716;2023-02-15T15:33:40;15.50;41.30
11229;DHT22;5671;47.936;8.716;2023-02-15T15:36:32;15.10;41.80
11229;DHT22;5671;47.936;8.716;2023-02-15T15:39:14;14.80;41.30
11229;DHT22;5671;47.936;8.716;2023-02-15T15:41:52;14.40;42.30
11229;DHT22;5671;47.936;8.716;2023-02-15T15:44:59;14.10;42.80
11229;DHT22;5671;47.936;8.716;2023-02-15T15:47:40;13.80;43.50
11229;DHT22;5671;47.936;8.716;2023-02-15T15:50:14;13.60;44.00
11229;DHT22;5671;47.936;8.716;2023-02-15T15:52:46;13.20;44.90
11229;DHT22;5671;47.936;8.716;2023-02-15T15:55:17;13.00;44.50
11229;DHT22;5671;47.936;8.716;2023-02-15T15:57:46;12.90;45.50
11229;DHT22;5671;47.936;8.716;2023-02-15T16:00:29;12.70;46.00
11229;DHT22;5671;47.936;8.716;2023-02-15T16:02:58;12.60;46.20
11229;DHT22;5671;47.936;8.716;2023-02-15T16:05:25;12.40;46.70
11229;DHT22;5671;47.936;8.716;2023-02-15T16:07:52;12.20;47.00
11229;DHT22;5671;47.936;8.716;2023-02-15T16:10:24;12.00;46.70
11229;DHT22;5671;47.936;8.716;2023-02-15T16:12:52;11.70;47.80
11229;DHT22;5671;47.936;8.716;2023-02-15T16:15:21;11.50;48.40
11229;DHT22;5671;47.936;8.716;2023-02-15T16:17:53;11.40;48.50
11229;DHT22;5671;47.936;8.716;2023-02-15T16:20:23;11.20;48.90
11229;DHT22;5671;47.936;8.716;2023-02-15T16:23:07;11.00;49.30
11229;DHT22;5671;47.936;8.716;2023-02-15T16:25:45;10.80;50.10
11229;DHT22;5671;47.936;8.716;2023-02-15T16:28:14;10.60;50.10
11229;DHT22;5671;47.936;8.716;2023-02-15T16:30:44;10.40;50.50
11229;DHT22;5671;47.936;8.716;2023-02-15T16:33:12;10.20;50.70